Senatobia, MS

04:53 AM CST ye 01 March, 2015 (GMT -0600)
APRSWXNET Como MS US | Change Station
CLOSE
Current Station
Personal Weather Stations
Location: Como, MS
Elevation: 350 ft
Nearby Weather Stations

Elev 350 ft 34.53 °N, 89.94 °W | Updated 40 minutes ago

Nubizita
Nubizita
39 °F
Feels Like 39 °F
N
0
Vento Variema Vento from NNW
Gusts 1.0 mph

Hodie
High -- | Low -- °F
--% Chance of Precip.
Yesterday
High -- | Low -- °F
Precip. -- in
6:29 AM 5:56 PM
Waxing Gibbous, 84% visible
Presuro 30.33 in
Videbleso 7.0 milii
Clouds Dispersita Nubi 9500 ft
Ventokoldeso 39 °F
Rosifopunto 29 °F
Humideso 68%
Rainfall 0.18 in
Snow Depth Not available.
UV 0 out of 12
Pollen 4.50 out of 12
Air Quality Not available.
Flu Activity Not available.
METAR KUTA 011035Z AUTO 36006KT 7SM SCT095 01/00 A3033 RMK AO2

More Conditions Fewer Conditions

Presuro 30.33 in
Videbleso 7.0 milii
Clouds Dispersita Nubi 9500 ft
Ventokoldeso 39 °F
Rosifopunto 29 °F
Humideso 68%
Rainfall 0.18 in
Snow Depth Not available.
UV 0 out of 12
Pollen 4.50 out of 12
Air Quality Not available.
Flu Activity Not available.
METAR KUTA 011035Z AUTO 36006KT 7SM SCT095 01/00 A3033 RMK AO2

More Conditions Fewer Conditions

10-Day Weather Forecast

Almanac

Astronomy

Mar. 01, 2015 Rise Set
Actual Time
Civil Twilight
Nautical Twilight
Astronomical Twilight
Moon
Length Of Visible Light
Length of Day
Tomorrow will be .
, % of the Moon is Illuminated

Today's Extremes

State Highs State Lows

Community

WunderPhotos

Upload Photos

1,801,359 photos uploaded!

WunderBlogs® & News

Nearby

Air Quality

  Air Quality AQ Index Pollutant
Not available.

Snow Depth

Station Depth Elevation

Earthquake Activity

City Distance Mag. Time & Date
Minimum magnitude displayed is 2.5.

Coastal Water Temperatures

Loko Temperaturo

Nearby Weather Stations